Indianapolis, Indiana
Traffic Map
Current Weather Conditions
Indianapolis, Indiana
Overcast
Overcast
-6°
Feels Like: -10°
Wind Chill: -10° Ceiling: 2800
Heat Index: -6° Visibility: 10mi
Dew Point: -10° Wind: 7mph
Humidity: 72% Direction: 270° (W)
Pressure: 30.53in Gusts: 0mph
Raw Report DataKIND 101054Z 27006KT 10SM BKN028 OVC110 M06/M10 A3053 RMK AO2 SLP350 T10561100
Traffic Incident Summary
Active as of:
Severity:
Category:
InformationThere was an issue retrieving the traffic information for this location. Please try a different location or try again shortly.
Advertisements
Track Severe Weather on mobile